| time (UTC) | temp F | wind direction | speed knots | gust knots | rain 1hr in | rain 24hr in | rain mn in | humidity % | barometer mb |
| 20260505230316 | 72 | 180 | 6.1 | 13.0 | 0.00 | 0.01 | 0.01 | 58 | 1010.5 |
| 20260505225316 | 72 | 180 | 5.2 | 8.7 | 0.00 | 0.01 | 0.01 | 58 | 1010.6 |
| 20260505224317 | 72 | 203 | 7.0 | 9.6 | 0.00 | 0.01 | 0.01 | 57 | 1010.8 |
| 20260505223317 | 72 | 225 | 6.1 | 8.7 | 0.00 | 0.01 | 0.01 | 57 | 1010.9 |
| 20260505222316 | 72 | 180 | 3.5 | 5.2 | 0.00 | 0.01 | 0.01 | 57 | 1010.9 |
| 20260505221319 | 72 | 203 | 4.3 | 7.0 | 0.00 | 0.01 | 0.01 | 57 | 1011.0 |
| 20260505220320 | 72 | 203 | 5.2 | 10.4 | 0.00 | 0.01 | 0.01 | 56 | 1011.1 |
| 20260505215320 | 72 | 180 | 5.2 | 9.6 | 0.00 | 0.01 | 0.01 | 56 | 1011.0 |
| 20260505214318 | 73 | 180 | 6.1 | 8.7 | 0.00 | 0.01 | 0.01 | 56 | 1011.0 |
| 20260505213319 | 72 | 203 | 6.1 | 9.6 | 0.00 | 0.01 | 0.01 | 55 | 1011.1 |
| 20260505212318 | 72 | 203 | 5.2 | 13.0 | 0.00 | 0.01 | 0.01 | 55 | 1011.1 |
| 20260505211319 | 72 | 0.0 | 1.7 | 0.00 | 0.01 | 0.01 | 58 | 1011.1 | |
| 20260505210318 | 71 | 203 | 3.5 | 4.3 | 0.00 | 0.01 | 0.01 | 59 | 1010.9 |
| 20260505205318 | 70 | 180 | 1.7 | 3.5 | 0.00 | 0.01 | 0.01 | 62 | 1010.8 |
| 20260505204318 | 69 | 180 | 2.6 | 3.5 | 0.00 | 0.01 | 0.01 | 62 | 1010.8 |
| 20260505203318 | 68 | 203 | 0.9 | 2.6 | 0.00 | 0.01 | 0.01 | 63 | 1010.5 |
| 20260505202318 | 68 | 203 | 0.9 | 2.6 | 0.00 | 0.01 | 0.01 | 63 | 1010.2 |
| 20260505201318 | 69 | 180 | 0.9 | 1.7 | 0.00 | 0.01 | 0.01 | 59 | 1010.7 |
| 20260505200338 | 70 | 180 | 0.9 | 3.5 | 0.00 | 0.01 | 0.01 | 57 | 1010.9 |
| 20260505195339 | 70 | 203 | 1.7 | 3.5 | 0.00 | 0.01 | 0.01 | 54 | 1011.6 |
| 20260505194318 | 71 | 0.0 | 1.7 | 0.00 | 0.01 | 0.01 | 52 | 1011.8 | |
| 20260505193317 | 71 | 203 | 0.9 | 1.7 | 0.00 | 0.01 | 0.01 | 51 | 1012.1 |
| 20260505192317 | 72 | 203 | 5.2 | 10.4 | 0.00 | 0.01 | 0.01 | 48 | 1011.5 |
| 20260505191317 | 72 | 180 | 4.3 | 7.0 | 0.00 | 0.01 | 0.01 | 46 | 1012.4 |
| 20260505190317 | 73 | 180 | 1.7 | 4.3 | 0.00 | 0.01 | 0.01 | 47 | 1012.8 |
| 20260505185317 | 73 | 203 | 3.5 | 6.1 | 0.01 | 0.01 | 0.01 | 46 | 1013.0 |
| 20260505184320 | 73 | 203 | 3.5 | 6.1 | 0.01 | 0.01 | 0.01 | 47 | 1012.9 |
| 20260505183317 | 74 | 203 | 4.3 | 7.0 | 0.01 | 0.01 | 0.01 | 47 | 1012.9 |
| 20260505182319 | 75 | 203 | 5.2 | 8.7 | 0.01 | 0.01 | 0.01 | 46 | 1013.1 |
| 20260505181318 | 75 | 180 | 7.8 | 10.4 | 0.01 | 0.01 | 0.01 | 47 | 1013.4 |
| 20260505180318 | 74 | 158 | 3.5 | 6.1 | 0.01 | 0.01 | 0.01 | 48 | 1013.5 |
| 20260505175317 | 74 | 203 | 3.5 | 5.2 | 0.00 | 0.00 | 0.00 | 49 | 1013.3 |
| 20260505174318 | 74 | 203 | 5.2 | 8.7 | 0.00 | 0.00 | 0.00 | 49 | 1013.4 |
| 20260505173317 | 74 | 0.0 | 2.6 | 0.00 | 0.00 | 0.00 | 51 | 1013.4 | |
| 20260505172317 | 74 | 225 | 3.5 | 7.0 | 0.00 | 0.00 | 0.00 | 50 | 1013.7 |
| 20260505171317 | 74 | 158 | 5.2 | 9.6 | 0.00 | 0.00 | 0.00 | 48 | 1013.8 |
| 20260505170338 | 73 | 203 | 6.1 | 7.8 | 0.00 | 0.00 | 0.00 | 48 | 1013.9 |
| 20260505165317 | 73 | 203 | 8.7 | 13.9 | 0.00 | 0.00 | 0.00 | 46 | 1014.0 |
| 20260505164317 | 73 | 180 | 5.2 | 9.6 | 0.00 | 0.00 | 0.00 | 50 | 1014.1 |
| 20260505163317 | 73 | 180 | 2.6 | 6.1 | 0.00 | 0.00 | 0.00 | 54 | 1014.2 |
| 20260505162317 | 72 | 180 | 3.5 | 5.2 | 0.00 | 0.00 | 0.00 | 52 | 1014.3 |
| 20260505161317 | 71 | 203 | 6.1 | 7.8 | 0.00 | 0.00 | 0.00 | 52 | 1014.1 |
| 20260505160318 | 71 | 225 | 3.5 | 6.1 | 0.00 | 0.00 | 0.00 | 56 | 1013.8 |
| 20260505153317 | 70 | 270 | 4.3 | 8.7 | 0.00 | 0.00 | 0.00 | 59 | 1014.2 |
| 20260505152317 | 69 | 225 | 2.6 | 7.0 | 0.00 | 0.00 | 0.00 | 63 | 1014.4 |
| 20260505151317 | 69 | 203 | 5.2 | 9.6 | 0.00 | 0.00 | 0.00 | 63 | 1014.4 |
| 20260505150317 | 68 | 225 | 3.5 | 5.2 | 0.00 | 0.00 | 0.00 | 65 | 1014.4 |
| 20260505140317 | 65 | 225 | 1.7 | 2.6 | 0.00 | 0.00 | 0.00 | 69 | 1014.3 |
| 20260505124316 | 61 | 180 | 1.7 | 3.5 | 0.00 | 0.00 | 0.00 | 75 | 1013.9 |
| 20260505123337 | 60 | 180 | 2.6 | 3.5 | 0.00 | 0.00 | 0.00 | 75 | 1013.9 |
| 20260505122316 | 59 | 180 | 1.7 | 3.5 | 0.00 | 0.00 | 0.00 | 78 | 1013.9 |
| 20260505121316 | 58 | 0.0 | 0.0 | 0.00 | 0.00 | 0.00 | 81 | 1013.9 | |
| 20260505120320 | 57 | 0.0 | 0.9 | 0.00 | 0.00 | 0.00 | 80 | 1013.9 | |
| 20260505115316 | 56 | 0.0 | 0.0 | 0.00 | 0.00 | 0.00 | 80 | 1013.5 | |
| 20260505114316 | 56 | 0.0 | 0.0 | 0.00 | 0.00 | 0.00 | 80 | 1013.1 | |
| 20260505113316 | 56 | 0.0 | 0.0 | 0.00 | 0.00 | 0.00 | 81 | 1012.9 | |
| 20260505112316 | 56 | 0.0 | 0.0 | 0.00 | 0.00 | 0.00 | 80 | 1012.9 | |
| 20260505111316 | 56 | 0.0 | 0.0 | 0.00 | 0.00 | 0.00 | 79 | 1012.9 | |
| 20260505110316 | 56 | 0.0 | 0.0 | 0.00 | 0.00 | 0.00 | 78 | 1012.6 | |
| 20260505101318 | 56 | 0.0 | 0.0 | 0.00 | 0.00 | 0.00 | 76 | 1012.0 | |
| 20260505100338 | 56 | 0.0 | 0.0 | 0.00 | 0.00 | 0.00 | 75 | 1012.1 | |
| 20260505095318 | 57 | 0.0 | 0.0 | 0.00 | 0.00 | 0.00 | 74 | 1012.1 | |
| 20260505094318 | 57 | 0.0 | 0.0 | 0.00 | 0.00 | 0.00 | 73 | 1012.1 | |
| 20260505093338 | 58 | 0.0 | 0.0 | 0.00 | 0.00 | 0.00 | 72 | 1012.3 | |
| 20260505092318 | 58 | 0.0 | 0.0 | 0.00 | 0.00 | 0.00 | 71 | 1012.1 | |
| 20260505091337 | 58 | 0.0 | 2.6 | 0.00 | 0.00 | 0.00 | 71 | 1011.9 | |
| 20260505090319 | 59 | 0.0 | 2.6 | 0.00 | 0.00 | 0.00 | 71 | 1011.8 | |
| 20260505085318 | 59 | 0.0 | 0.9 | 0.00 | 0.00 | 0.00 | 70 | 1011.8 | |
| 20260505084317 | 58 | 158 | 0.9 | 1.7 | 0.00 | 0.00 | 0.00 | 71 | 1012.0 |
| 20260505083318 | 58 | 0.0 | 0.9 | 0.00 | 0.00 | 0.00 | 73 | 1012.2 | |
| 20260505082318 | 57 | 0.0 | 0.0 | 0.00 | 0.00 | 0.00 | 75 | 1012.0 | |
| 20260505081317 | 56 | 180 | 0.9 | 3.5 | 0.00 | 0.00 | 0.00 | 78 | 1011.8 |
| 20260505080317 | 55 | 0.0 | 0.0 | 0.00 | 0.00 | 0.00 | 80 | 1012.2 | |
| 20260505075317 | 55 | 0.0 | 0.0 | 0.00 | 0.00 | 0.00 | 80 | 1012.2 | |
| 20260505074318 | 55 | 0.0 | 0.0 | 0.00 | 0.00 | 0.00 | 80 | 1012.3 | |
| 20260505073317 | 55 | 0.0 | 0.0 | 0.00 | 0.00 | 0.00 | 80 | 1012.5 | |
| 20260505072317 | 55 | 0.0 | 0.0 | 0.00 | 0.00 | 0.00 | 80 | 1012.5 | |
| 20260505071337 | 55 | 0.0 | 0.0 | 0.00 | 0.00 | 0.00 | 79 | 1012.5 | |
| 20260505070318 | 55 | 0.0 | 0.0 | 0.00 | 0.00 | 0.00 | 79 | 1012.6 | |
| 20260505065317 | 56 | 0.0 | 0.0 | 0.00 | 0.00 | 0.00 | 77 | 1012.6 | |
| 20260505064317 | 57 | 0.0 | 0.0 | 0.00 | 0.00 | 0.00 | 76 | 1012.8 | |
| 20260505063318 | 58 | 0.0 | 0.0 | 0.00 | 0.00 | 0.00 | 74 | 1012.8 | |
| 20260505062317 | 58 | 0.0 | 0.0 | 0.00 | 0.00 | 0.00 | 72 | 1013.0 | |
| 20260505061317 | 59 | 0.0 | 0.0 | 0.00 | 0.00 | 0.00 | 71 | 1013.1 | |
| 20260505060317 | 60 | 0.0 | 0.0 | 0.00 | 0.00 | 0.00 | 69 | 1013.1 | |
| 20260505055317 | 61 | 0.0 | 0.0 | 0.00 | 0.00 | 0.00 | 68 | 1013.1 | |
| 20260505054317 | 61 | 0.0 | 0.0 | 0.00 | 0.00 | 0.00 | 67 | 1013.1 | |
| 20260505053317 | 61 | 0.0 | 1.7 | 0.00 | 0.00 | 0.00 | 66 | 1013.1 | |
| 20260505052317 | 61 | 0.0 | 0.0 | 0.00 | 0.00 | 0.00 | 66 | 1013.1 | |
| 20260505051317 | 62 | 0.0 | 0.0 | 0.00 | 0.00 | 0.00 | 66 | 1013.2 | |
| 20260505050319 | 62 | 0.0 | 0.0 | 0.00 | 0.00 | 0.00 | 65 | 1013.2 | |
| 20260505041317 | 63 | 180 | 0.9 | 4.3 | 0.00 | 0.00 | 0.00 | 61 | 1013.0 |
| 20260505040338 | 63 | 0.0 | 0.0 | 0.00 | 0.00 | 0.00 | 60 | 1013.1 | |
| 20260505035317 | 63 | 0.0 | 0.0 | 0.00 | 0.00 | 0.00 | 60 | 1013.0 | |
| 20260505034317 | 64 | 0.0 | 0.0 | 0.00 | 0.00 | 0.00 | 60 | 1013.0 | |
| 20260505033337 | 64 | 0.0 | 0.0 | 0.00 | 0.00 | 0.00 | 59 | 1012.9 | |
| 20260505032338 | 64 | 0.0 | 0.0 | 0.00 | 0.00 | 0.00 | 57 | 1012.9 | |
| 20260505031317 | 65 | 0.0 | 0.0 | 0.00 | 0.00 | 0.00 | 58 | 1013.0 | |
| 20260505030317 | 65 | 0.0 | 0.0 | 0.00 | 0.00 | 0.00 | 56 | 1013.0 | |
| 20260505025319 | 65 | 0.0 | 2.6 | 0.00 | 0.00 | 0.00 | 57 | 1013.0 | |
| 20260505024337 | 65 | 0.0 | 0.0 | 0.00 | 0.00 | 0.00 | 57 | 1013.0 | |
| 20260505023337 | 65 | 0.0 | 0.9 | 0.00 | 0.00 | 0.00 | 57 | 1013.1 | |
| 20260505022317 | 66 | 0.0 | 0.0 | 0.00 | 0.00 | 0.00 | 56 | 1012.9 | |
| 20260505021317 | 67 | 0.0 | 0.0 | 0.00 | 0.00 | 0.00 | 56 | 1012.8 | |
| 20260505020317 | 67 | 0.0 | 0.9 | 0.00 | 0.00 | 0.00 | 54 | 1012.8 | |
| 20260505015316 | 67 | 0.0 | 0.9 | 0.00 | 0.00 | 0.00 | 53 | 1012.7 | |
| 20260505014316 | 68 | 0.0 | 0.9 | 0.00 | 0.00 | 0.00 | 54 | 1012.6 | |
| 20260505013317 | 68 | 180 | 0.9 | 2.6 | 0.00 | 0.00 | 0.00 | 54 | 1012.6 |
| 20260505012316 | 68 | 0.0 | 0.0 | 0.00 | 0.00 | 0.00 | 53 | 1012.5 | |
| 20260505011317 | 69 | 0.0 | 0.0 | 0.00 | 0.00 | 0.00 | 52 | 1012.6 | |
| 20260505010337 | 69 | 0.0 | 0.9 | 0.00 | 0.00 | 0.00 | 52 | 1012.5 | |
| 20260505005316 | 70 | 0.0 | 1.7 | 0.00 | 0.00 | 0.00 | 51 | 1012.4 | |
| 20260505004316 | 70 | 0.0 | 0.0 | 0.00 | 0.00 | 0.00 | 50 | 1012.3 | |
| 20260505003317 | 71 | 0.0 | 0.0 | 0.00 | 0.00 | 0.00 | 48 | 1012.2 | |
| 20260505002316 | 72 | 0.0 | 0.0 | 0.00 | 0.00 | 0.00 | 47 | 1012.2 | |
| 20260505001317 | 73 | 180 | 1.7 | 3.5 | 0.00 | 0.00 | 0.00 | 46 | 1012.1 |
| 20260505000317 | 73 | 180 | 3.5 | 5.2 | 0.00 | 0.00 | 0.00 | 44 | 1012.1 |
| 20260504235316 | 74 | 180 | 3.5 | 6.1 | 0.00 | 0.00 | 0.00 | 44 | 1012.1 |
| 20260504234316 | 74 | 203 | 6.1 | 9.6 | 0.00 | 0.00 | 0.00 | 43 | 1012.1 |
| 20260504233316 | 75 | 180 | 1.7 | 3.5 | 0.00 | 0.00 | 0.00 | 43 | 1012.2 |
| 20260504232316 | 75 | 203 | 3.5 | 6.1 | 0.00 | 0.00 | 0.00 | 41 | 1012.1 |
| 20260504231316 | 75 | 180 | 1.7 | 4.3 | 0.00 | 0.00 | 0.00 | 41 | 1012.1 |